Latest Weather Observations for Coober Pedy Airport

IDS60801

Issued at 2:11 am CST Friday 19 August 2022 (issued every 10 minutes, with the page automatically refreshed every 10 minutes)

About weather observations | Map of weather stations | Latest weather observations for SA | Other Formats
Station Details ID: 016090 Name: COOBER PEDY AIRPORT Lat: -29.03 Lon: 134.72 Height: 225.0 m
Data from the previous 72 hours. | See also: Recent months at Coober Pedy Airport
Date/Time
CST
Temp
°C
App
Temp
°C
Dew
Point
°C
Rel
Hum
%
Delta-T
°C
Wind Press
QNH
hPa
Press
MSL
hPa
Rain since
9am
mm
Dir  Spd
km/h
Gust
km/h
Spd
kts
Gust
kts
19/02:00am 6.5 2.4 6.4 99 0.0 WSW 17 19 9 10 1025.0 1024.9 1.0
19/01:30am 6.9 2.9 6.5 97 0.2 WSW 17 20 9 11 1025.1 1025.0 1.0
19/01:00am 7.4 2.8 6.7 95 0.3 WSW 20 22 11 12 1024.9 1024.8 1.0
19/12:30am 7.6 3.2 6.7 94 0.4 SW 19 24 10 13 1024.8 1024.7 1.0
19/12:00am 7.9 3.4 6.8 93 0.5 WSW 20 26 11 14 1024.8 1024.7 1.0
 
Date/Time
CST
Temp
°C
App
Temp
°C
Dew
Point
°C
Rel
Hum
%
Delta-T
°C
Wind Press
QNH
hPa
Press
MSL
hPa
Rain since
9am
mm
Dir  Spd
km/h
Gust
km/h
Spd
kts
Gust
kts
18/11:30pm 8.2 3.3 6.7 90 0.7 SW 22 26 12 14 1024.4 1024.3 1.0
18/11:00pm 8.2 3.3 6.7 90 0.7 SW 22 26 12 14 1024.4 1024.3 1.0
18/10:30pm 8.4 4.0 6.7 89 0.8 WSW 19 22 10 12 1024.2 1024.1 1.0
18/10:00pm 8.6 4.1 6.9 89 0.8 WSW 20 22 11 12 1024.2 1024.1 1.0
18/09:30pm 7.9 4.3 6.8 93 0.5 WSW 15 17 8 9 1023.9 1023.8 1.0
18/09:00pm 7.8 4.2 6.9 94 0.4 WSW 15 15 8 8 1023.6 1023.5 1.0
18/08:30pm 8.4 4.5 7.2 92 0.6 WSW 17 17 9 9 1023.3 1023.2 1.0
18/08:00pm 9.1 5.3 7.4 89 0.8 SW 17 20 9 11 1022.8 1022.6 1.0
18/07:30pm 9.4 5.6 7.7 89 0.8 SW 17 19 9 10 1022.2 1022.0 1.0
18/07:00pm 10.2 5.5 7.6 84 1.3 SW 22 28 12 15 1021.3 1021.2 1.0
18/06:30pm 10.9 4.7 7.8 81 1.5 SW 30 39 16 21 1020.8 1020.7 1.0
18/06:00pm 11.3 3.9 8.3 82 1.5 SW 37 50 20 27 1020.3 1020.2 1.0
18/05:30pm 11.3 3.7 9.0 86 1.2 SW 39 52 21 28 1020.2 1020.1 1.0
18/05:14pm 11.3 2.7 10.2 93 0.6 SW 46 67 25 36 1019.7 1019.6 1.0
18/05:00pm 11.7 3.6 10.8 94 0.5 SW 44 56 24 30 1019.3 1019.2 1.0
18/04:30pm 11.9 4.1 11.9 100 0.0 SW 44 57 24 31 1018.7 1018.5 0.6
18/04:14pm 11.8 2.0 11.3 97 0.3 SW 54 72 29 39 1018.2 1018.0 0.6
18/04:00pm 12.2 2.3 11.1 93 0.6 SW 54 67 29 36 1018.2 1018.0 0.0
18/03:43pm 14.1 2.4 9.5 74 2.4 SW 61 82 33 44 1016.9 1016.8 0.0
18/03:39pm 14.7 3.5 9.7 72 2.6 SW 59 76 32 41 1016.8 1016.7 0.0
18/03:30pm 15.6 4.8 11.2 75 2.4 WSW 59 80 32 43 1016.3 1016.2 0.0
18/03:23pm 15.8 5.0 11.4 75 2.4 WSW 59 80 32 43 1016.0 1015.9 0.0
18/03:22pm 15.9 5.2 11.5 75 2.4 WSW 59 76 32 41 1016.0 1015.9 0.0
18/03:09pm 16.8 7.2 12.1 74 2.6 WSW 54 69 29 37 1015.6 1015.5 0.0
18/03:00pm 16.7 7.4 13.2 80 2.0 WSW 54 65 29 35 1015.3 1015.1 0.0
18/02:49pm 16.9 9.5 12.4 75 2.5 WSW 43 80 23 43 1014.8 1014.6 0.0
18/02:48pm 17.8 10.8 11.1 65 3.7 WSW 39 80 21 43 1014.8 1014.6 0.0
18/02:47pm 19.0 12.3 9.8 55 4.9 WSW 35 80 19 43 1014.7 1014.5 0.0
18/02:46pm 20.5 13.8 8.2 45 6.5 WSW 33 54 18 29 1014.7 1014.5 0.0
18/02:30pm 20.9 13.5 6.8 40 7.2 WSW 35 50 19 27 1014.3 1014.1 0.0
18/02:00pm 20.5 13.8 7.5 43 6.7 W 32 39 17 21 1014.0 1013.8 0.0
18/01:30pm 20.1 14.8 8.4 47 6.2 W 26 35 14 19 1014.1 1013.9 0.0
18/01:00pm 19.6 15.4 8.3 48 5.9 W 20 30 11 16 1014.1 1013.9 0.0
18/12:30pm 19.1 14.9 8.4 50 5.6 W 20 24 11 13 1014.4 1014.2 0.0
18/12:00pm 18.6 15.1 8.8 53 5.2 WSW 17 22 9 12 1014.5 1014.3 0.0
18/11:30am 17.6 14.4 10.0 61 4.1 SW 17 20 9 11 1015.1 1014.9 0.0
18/11:00am 17.1 13.5 10.0 63 3.8 SW 19 22 10 12 1015.3 1015.1 0.0
18/10:30am 17.1 13.5 10.0 63 3.8 SW 19 24 10 13 1015.6 1015.5 0.0
18/10:00am 17.0 14.0 10.8 67 3.4 SW 17 20 9 11 1015.4 1015.2 0.0
18/09:30am 16.2 13.5 11.6 74 2.5 SW 17 20 9 11 1015.2 1015.0 0.0
18/09:00am 14.9 13.1 12.0 83 1.6 SSW 13 15 7 8 1014.8 1014.6 0.0
18/08:30am 13.6 12.1 11.8 89 1.0 WSW 11 15 6 8 1015.0 1014.8 0.0
18/08:00am 11.9 10.6 11.1 95 0.4 WSW 9 13 5 7 1014.6 1014.4 0.0
18/07:30am 9.6 7.3 9.0 96 0.3 WSW 11 11 6 6 1014.1 1013.9 0.0
18/07:00am 9.4 7.0 8.8 96 0.3 SW 11 11 6 6 1013.8 1013.6 0.0
18/06:30am 9.6 7.2 8.8 95 0.4 WSW 11 13 6 7 1013.4 1013.2 0.0
18/06:00am 10.6 8.1 9.8 95 0.4 SW 13 17 7 9 1013.3 1013.1 0.0
18/05:30am 10.9 8.4 9.7 92 0.6 SW 13 15 7 8 1013.2 1013.0 0.0
18/05:00am 12.3 9.8 10.9 91 0.7 SW 15 17 8 9 1013.1 1012.9 0.0
18/04:30am 12.5 9.9 10.7 89 0.9 SW 15 15 8 8 1013.3 1013.1 0.0
18/04:00am 13.2 10.6 10.6 84 1.4 SW 15 17 8 9 1013.2 1013.0 0.0
18/03:30am 14.3 10.9 11.3 82 1.6 SSW 20 24 11 13 1012.9 1012.7 0.0
18/03:00am 15.0 11.3 11.4 79 2.0 SSW 22 30 12 16 1013.0 1012.8 0.0
18/02:30am 15.6 11.1 11.4 76 2.3 SSW 26 33 14 18 1013.0 1012.8 0.0
18/02:00am 16.0 10.2 11.4 74 2.5 SSW 33 43 18 23 1013.0 1012.8 0.0
18/01:30am 17.8 11.8 -1.9 26 8.3 WNW 20 35 11 19 1012.9 1012.7 0.0
18/01:00am 18.9 10.4 -3.3 22 9.2 WNW 32 46 17 25 1012.5 1012.4 0.0
18/12:58am 19.0 10.5 -3.2 22 9.2 WNW 32 46 17 25 1013.2 1013.0 0.0
18/12:30am 17.9 9.8 -2.9 24 8.6 N 30 41 16 22 1011.6 1011.4 0.0
18/12:00am 17.6 8.9 -3.2 24 8.5 NNE 33 39 18 21 1011.7 1011.6 0.0
 
Date/Time
CST
Temp
°C
App
Temp
°C
Dew
Point
°C
Rel
Hum
%
Delta-T
°C
Wind Press
QNH
hPa
Press
MSL
hPa
Rain since
9am
mm
Dir  Spd
km/h
Gust
km/h
Spd
kts
Gust
kts
17/11:30pm 16.8 8.4 -2.8 26 8.0 NNE 32 35 17 19 1012.1 1012.0 0.0
17/11:00pm 17.1 8.6 -3.1 25 8.2 NNE 32 35 17 19 1012.5 1012.4 0.0
17/10:30pm 16.2 8.9 -2.8 27 7.7 NNE 26 30 14 16 1012.6 1012.5 0.0
17/10:00pm 16.9 9.6 -2.7 26 8.1 NNE 26 32 14 17 1013.1 1012.9 0.0
17/09:30pm 17.5 10.2 -2.7 25 8.4 NNE 26 28 14 15 1013.5 1013.3 0.0
17/09:00pm 18.6 10.9 -2.9 23 8.9 NNE 28 32 15 17 1013.6 1013.4 0.0
17/08:30pm 18.9 11.6 -2.7 23 9.1 NNE 26 32 14 17 1013.5 1013.3 0.0
17/08:00pm 19.2 12.0 -2.4 23 9.1 NNE 26 30 14 16 1013.4 1013.2 0.0
17/07:30pm 19.9 12.7 -2.4 22 9.5 NNE 26 30 14 16 1013.5 1013.3 0.0
17/07:00pm 20.9 14.1 -2.2 21 10.0 NNE 24 28 13 15 1013.5 1013.3 0.0
17/06:30pm 22.4 15.2 -2.3 19 10.8 N 26 32 14 17 1013.5 1013.3 0.0
17/06:00pm 23.9 15.9 -2.6 17 11.6 N 30 37 16 20 1013.4 1013.2 0.0
17/05:30pm 25.1 16.0 -3.3 15 12.4 N 35 44 19 24 1013.1 1012.9 0.0
17/05:00pm 25.8 16.0 -2.8 15 12.7 N 39 48 21 26 1013.3 1013.1 0.0
17/04:30pm 26.1 16.2 -3.5 14 13.0 N 39 50 21 27 1013.2 1013.0 0.0
17/04:00pm 26.0 16.5 -3.5 14 13.0 N 37 50 20 27 1013.4 1013.2 0.0
17/03:30pm 26.0 15.9 -2.6 15 12.8 N 41 54 22 29 1013.6 1013.4 0.0
17/03:00pm 25.6 15.0 -3.8 14 12.8 N 43 52 23 28 1014.0 1013.8 0.0
17/02:30pm 25.5 15.3 -3.0 15 12.6 N 41 52 22 28 1014.3 1014.1 0.0
17/02:00pm 25.2 14.4 -3.2 15 12.5 N 44 57 24 31 1014.8 1014.6 0.0
17/01:30pm 24.0 14.1 -1.0 19 11.3 N 41 52 22 28 1015.7 1015.6 0.0
17/01:00pm 24.1 14.7 -0.2 20 11.2 N 39 50 21 27 1016.5 1016.4 0.0
17/12:30pm 22.7 13.4 0.5 23 10.2 N 39 50 21 27 1017.4 1017.2 0.0
17/12:00pm 21.7 12.4 0.8 25 9.6 N 39 54 21 29 1018.1 1017.9 0.0
17/11:30am 20.4 11.1 0.8 27 8.9 N 39 50 21 27 1018.7 1018.5 0.0
17/11:00am 19.5 9.6 1.9 31 8.1 N 43 52 23 28 1019.0 1018.8 0.0
17/10:30am 18.5 8.5 1.9 33 7.6 N 44 54 24 29 1019.6 1019.5 0.0
17/10:00am 17.0 8.1 3.0 39 6.5 N 39 50 21 27 1019.8 1019.7 0.0
17/09:30am 14.7 6.2 3.2 46 5.2 NNE 37 50 20 27 1019.9 1019.8 0.0
17/09:00am 13.5 5.0 3.3 50 4.6 N 37 46 20 25 1020.2 1020.1 0.0
17/08:30am 11.2 4.1 3.5 59 3.4 NNE 30 35 16 19 1020.3 1020.2 0.0
17/08:00am 9.4 2.9 2.9 64 2.8 NNE 26 30 14 16 1020.1 1020.0 0.0
17/07:30am 8.5 1.6 2.5 66 2.5 NNE 28 32 15 17 1019.6 1019.5 0.0
17/07:00am 8.3 0.9 2.1 65 2.6 N 30 33 16 18 1019.5 1019.4 0.0
17/06:30am 8.0 0.9 1.6 64 2.6 N 28 32 15 17 1019.4 1019.3 0.0
17/06:00am 8.0 0.9 1.6 64 2.6 NNE 28 32 15 17 1019.3 1019.2 0.0
17/05:30am 6.9 0.9 1.0 66 2.4 NNE 22 26 12 14 1019.2 1019.0 0.0
17/05:00am 7.1 0.0 1.2 66 2.4 NNE 28 33 15 18 1018.6 1018.4 0.0
17/04:30am 7.5 0.4 1.1 64 2.6 NNE 28 33 15 18 1018.4 1018.2 0.0
17/04:00am 8.3 1.6 1.5 62 2.8 NNE 26 33 14 18 1018.3 1018.1 0.0
17/03:30am 8.2 2.2 0.9 60 3.0 NNE 22 28 12 15 1018.5 1018.3 0.0
17/03:00am 8.4 2.8 0.9 59 3.1 NNE 20 24 11 13 1018.8 1018.6 0.0
17/02:30am 8.3 3.6 0.8 59 3.0 N 15 20 8 11 1019.4 1019.3 0.0
17/02:00am 7.8 3.7 -0.4 56 3.2 N 11 13 6 7 1019.5 1019.4 0.0
17/01:30am 8.8 3.6 0.3 55 3.4 NNE 17 20 9 11 1019.3 1019.2 0.0
17/01:00am 8.6 3.3 -0.4 53 3.6 NNE 17 19 9 10 1019.1 1018.9 0.0
17/12:30am 8.7 3.7 -0.9 51 3.8 NNE 15 17 8 9 1019.1 1018.9 0.0
17/12:00am 9.5 4.2 -0.4 50 4.0 NNE 17 20 9 11 1019.4 1019.3 0.0
 
Date/Time
CST
Temp
°C
App
Temp
°C
Dew
Point
°C
Rel
Hum
%
Delta-T
°C
Wind Press
QNH
hPa
Press
MSL
hPa
Rain since
9am
mm
Dir  Spd
km/h
Gust
km/h
Spd
kts
Gust
kts
16/11:30pm 10.1 4.9 0.2 50 4.0 NNE 17 20 9 11 1019.7 1019.6 0.0
16/11:00pm 11.0 5.3 0.4 48 4.4 NE 20 24 11 13 1019.9 1019.8 0.0
16/10:30pm 11.4 5.9 0.8 48 4.4 NE 19 20 10 11 1020.1 1020.0 0.0
16/10:00pm 11.3 6.2 1.0 49 4.3 NE 17 20 9 11 1020.4 1020.3 0.0
16/09:30pm 11.7 6.7 1.1 48 4.5 NE 17 19 9 10 1020.5 1020.4 0.0
16/09:00pm 12.2 7.5 1.2 47 4.7 NE 15 17 8 9 1020.8 1020.7 0.0
16/08:30pm 12.8 8.5 1.2 45 5.0 NE 13 15 7 8 1020.7 1020.6 0.0
16/08:00pm 13.9 8.9 1.2 42 5.5 NE 17 19 9 10 1020.4 1020.3 0.0
16/07:30pm 14.5 9.5 1.1 40 5.8 NE 17 17 9 9 1020.4 1020.3 0.0
16/07:00pm 15.2 11.3 1.0 38 6.2 NE 11 13 6 7 1020.3 1020.2 0.0
16/06:30pm 16.6 13.0 0.7 34 7.0 NNE 9 9 5 5 1020.3 1020.2 0.0
16/06:00pm 18.3 15.2 1.3 32 7.7 NNE 7 11 4 6 1020.2 1020.1 0.0
16/05:30pm 19.0 16.2 2.0 32 7.8 NNE 6 15 3 8 1020.1 1020.0 0.0
16/05:00pm 19.5 17.0 1.5 30 8.3 N 4 11 2 6 1019.8 1019.7 0.0
16/04:30pm 19.3 15.5 1.8 31 8.0 N 11 15 6 8 1019.6 1019.5 0.0
16/04:00pm 19.4 15.6 1.9 31 8.1 NNE 11 20 6 11 1019.8 1019.7 0.0
16/03:30pm 19.3 16.0 2.6 33 7.8 NNE 9 15 5 8 1019.9 1019.8 0.0
16/03:00pm 19.2 16.1 3.4 35 7.5 N 9 22 5 12 1020.0 1019.9 0.0
16/02:30pm 18.5 15.3 3.2 36 7.2 NNE 9 15 5 8 1020.4 1020.3 0.0
16/02:00pm 17.9 15.2 3.8 39 6.7 NNE 7 13 4 7 1020.6 1020.5 0.0
16/01:30pm 17.9 14.6 4.5 41 6.4 NE 11 17 6 9 1020.9 1020.8 0.0
16/01:00pm 16.6 13.3 4.3 44 5.8 ENE 11 19 6 10 1021.6 1021.5 0.0
16/12:30pm 16.5 13.3 5.2 47 5.4 NNE 11 17 6 9 1022.2 1022.0 0.0
16/12:00pm 15.7 12.9 5.0 49 5.1 NNE 9 17 5 9 1022.8 1022.6 0.0
16/11:30am 15.0 12.8 6.0 55 4.4 ESE 7 15 4 8 1023.4 1023.3 0.0
16/11:00am 14.0 11.1 6.6 61 3.6 SE 11 19 6 10 1023.5 1023.4 0.0
16/10:30am 13.7 10.5 7.0 64 3.3 ESE 13 20 7 11 1023.6 1023.5 0.0
16/10:00am 12.8 8.9 7.3 69 2.7 SSE 17 22 9 12 1023.8 1023.7 0.0
16/09:30am 11.8 7.9 7.3 74 2.2 SSE 17 20 9 11 1023.8 1023.7 0.0
16/09:00am 10.5 6.6 7.0 79 1.7 S 17 20 9 11 1023.6 1023.5 0.0
16/08:30am 8.8 5.5 6.6 86 1.0 SSW 13 17 7 9 1023.4 1023.3 0.0
16/08:00am 6.4 3.6 5.0 91 0.6 SW 9 11 5 6 1023.2 1023.1 0.0
16/07:30am 4.6 0.4 4.0 96 0.3 SW 15 15 8 8 1022.8 1022.6 0.0
16/07:00am 3.8 -0.2 3.1 95 0.3 SW 13 13 7 7 1022.3 1022.1 0.0
16/06:30am 3.9 -0.1 3.0 94 0.4 SW 13 13 7 7 1021.7 1021.6 0.0
16/06:00am 4.5 0.6 3.3 92 0.5 SSW 13 15 7 8 1021.0 1020.9 0.0
16/05:30am 5.4 1.6 4.1 91 0.6 SSW 13 13 7 7 1020.5 1020.4 0.0
16/05:00am 5.4 1.6 3.7 89 0.7 SSW 13 13 7 7 1020.4 1020.3 0.0
16/04:30am 5.6 1.8 3.8 88 0.8 SSW 13 15 7 8 1020.3 1020.2 0.0
16/04:00am 5.5 0.9 3.5 87 0.8 S 17 17 9 9 1020.3 1020.2 0.0
16/03:30am 6.0 1.4 3.8 86 0.9 S 17 19 9 10 1020.3 1020.2 0.0
16/03:00am 6.2 2.3 3.5 83 1.1 S 13 15 7 8 1020.5 1020.4 0.0
16/02:30am 6.8 2.6 3.9 82 1.3 S 15 15 8 8 1020.9 1020.8 0.0

Other formats

Comma delimited format used in spreadsheet applications
http://www.bom.gov.au/fwo/IDS60801/IDS60801.95458.axf

JavaScript Object Notation format (JSON) in row-major order
http://www.bom.gov.au/fwo/IDS60801/IDS60801.95458.json

Data quality

Most of these data are generated automatically and are frequently updated. Quality checks on data are not normally performed. It is possible for incorrect values to appear. Refer to information at About Latest Weather Observations and please check the disclaimer before using these data.